createdAt,value
2019-04-16T00:00:06.436Z,7.82
2019-04-16T00:01:06.472Z,7.82
2019-04-16T00:02:06.504Z,7.63
2019-04-16T00:03:06.543Z,7.58
2019-04-16T00:04:06.582Z,7.50
2019-04-16T00:05:06.619Z,7.53
2019-04-16T00:06:06.658Z,7.45
2019-04-16T00:07:06.696Z,7.48
2019-04-16T00:08:19.379Z,7.45
2019-04-16T00:09:06.910Z,7.49
2019-04-16T00:10:06.810Z,7.50
2019-04-16T00:11:06.855Z,7.37
2019-04-16T00:12:06.894Z,7.43
2019-04-16T00:13:06.930Z,7.34
2019-04-16T00:14:06.970Z,7.25
2019-04-16T00:15:07.013Z,7.23
2019-04-16T00:16:07.041Z,7.20
2019-04-16T00:17:07.075Z,7.23
2019-04-16T00:18:07.114Z,7.09
2019-04-16T00:19:07.152Z,7.10
2019-04-16T00:20:07.279Z,7.06
2019-04-16T00:21:09.932Z,6.92
2019-04-16T00:22:11.495Z,6.87
2019-04-16T00:23:07.306Z,6.80
2019-04-16T00:24:07.342Z,6.74
2019-04-16T00:25:07.383Z,6.70
2019-04-16T00:26:07.432Z,6.64
2019-04-16T00:27:07.456Z,6.61
2019-04-16T00:28:07.493Z,6.61
2019-04-16T00:29:07.533Z,6.52
2019-04-16T00:30:07.570Z,6.56
2019-04-16T00:31:07.609Z,6.59
2019-04-16T00:32:09.396Z,6.62
2019-04-16T00:33:10.541Z,6.52
2019-04-16T00:34:07.723Z,6.55
2019-04-16T00:35:07.767Z,6.48
2019-04-16T00:36:07.798Z,6.54
2019-04-16T00:37:07.837Z,6.51
2019-04-16T00:38:07.874Z,6.51
2019-04-16T00:39:07.911Z,6.30
2019-04-16T00:40:07.958Z,6.41
2019-04-16T00:41:07.988Z,6.34
2019-04-16T00:42:08.026Z,6.38
2019-04-16T00:43:08.064Z,6.36
2019-04-16T00:44:08.102Z,6.30
2019-04-16T00:45:08.143Z,6.15
2019-04-16T00:46:11.401Z,6.08
2019-04-16T00:47:08.215Z,6.08
2019-04-16T00:48:08.258Z,6.09
2019-04-16T00:49:08.294Z,5.97
2019-04-16T00:50:08.330Z,6.03
2019-04-16T00:51:08.366Z,5.91
2019-04-16T00:52:08.405Z,5.99
2019-04-16T00:53:09.051Z,5.96
2019-04-16T00:54:10.352Z,5.90
2019-04-16T00:55:08.516Z,5.99
2019-04-16T00:56:08.560Z,5.97
2019-04-16T00:57:08.593Z,5.90
2019-04-16T00:58:08.629Z,5.86
2019-04-16T00:59:08.670Z,5.81
2019-04-16T01:00:08.704Z,5.83
2019-04-16T01:01:08.741Z,5.86
2019-04-16T01:02:08.846Z,5.81
2019-04-16T01:03:09.030Z,5.76
2019-04-16T01:04:09.132Z,5.78
2019-04-16T01:05:09.079Z,5.78
2019-04-16T01:06:08.972Z,5.67
2019-04-16T01:07:08.976Z,5.72
2019-04-16T01:08:09.005Z,5.65
2019-04-16T01:09:09.043Z,5.67
2019-04-16T01:10:09.175Z,5.68
2019-04-16T01:11:09.126Z,5.72
2019-04-16T01:12:09.249Z,5.64
2019-04-16T01:13:09.193Z,5.61
2019-04-16T01:14:09.231Z,5.53
2019-04-16T01:15:09.269Z,5.48
2019-04-16T01:16:09.306Z,5.42
2019-04-16T01:17:09.343Z,5.39
2019-04-16T01:18:09.381Z,5.35
2019-04-16T01:19:10.838Z,5.40
2019-04-16T01:20:12.647Z,5.24
2019-04-16T01:21:13.785Z,5.33
2019-04-16T01:22:09.531Z,5.21
2019-04-16T01:23:09.760Z,5.15
2019-04-16T01:24:09.781Z,5.15
2019-04-16T01:25:09.794Z,5.13
2019-04-16T01:26:09.680Z,5.13
2019-04-16T01:27:09.913Z,5.09
2019-04-16T01:28:10.009Z,5.04
2019-04-16T01:29:09.792Z,5.00
2019-04-16T01:30:09.840Z,5.00
2019-04-16T01:31:10.041Z,4.88
2019-04-16T01:32:11.697Z,4.86
2019-04-16T01:33:14.430Z,4.78
2019-04-16T01:34:09.989Z,4.80
2019-04-16T01:35:10.279Z,4.80
2019-04-16T01:36:10.225Z,4.72
2019-04-16T01:37:10.224Z,4.69
2019-04-16T01:38:10.441Z,4.70
2019-04-16T01:39:17.394Z,4.69
2019-04-16T01:40:10.203Z,4.58
2019-04-16T01:41:10.274Z,4.55
2019-04-16T01:42:10.276Z,4.55
2019-04-16T01:43:10.341Z,4.47
2019-04-16T01:44:10.430Z,4.47
2019-04-16T01:45:10.396Z,4.45
2019-04-16T01:46:10.435Z,4.48
2019-04-16T01:47:10.467Z,4.50
2019-04-16T01:48:10.651Z,4.42
2019-04-16T01:49:11.487Z,4.44
2019-04-16T01:50:13.916Z,4.40
2019-04-16T01:51:12.572Z,4.36
2019-04-16T01:52:10.648Z,4.44
2019-04-16T01:53:10.685Z,4.30
2019-04-16T01:54:10.721Z,4.24
2019-04-16T01:55:10.764Z,4.33
2019-04-16T01:56:11.019Z,4.22
2019-04-16T01:57:11.079Z,4.24
2019-04-16T01:58:11.060Z,4.16
2019-04-16T01:59:10.905Z,4.11
2019-04-16T02:00:10.945Z,4.06
2019-04-16T02:01:11.457Z,4.14
2019-04-16T02:02:14.778Z,4.08
2019-04-16T02:03:11.055Z,4.15
2019-04-16T02:04:11.091Z,4.00
2019-04-16T02:05:11.132Z,4.04
2019-04-16T02:06:11.165Z,4.06
2019-04-16T02:07:11.204Z,4.04
2019-04-16T02:08:11.240Z,4.05
2019-04-16T02:09:21.957Z,4.06
2019-04-16T02:10:11.313Z,3.98
2019-04-16T02:11:11.456Z,3.98
2019-04-16T02:12:13.506Z,3.98
2019-04-16T02:13:14.582Z,4.00
2019-04-16T02:14:11.471Z,3.94
2019-04-16T02:15:11.503Z,3.96
2019-04-16T02:16:11.537Z,3.88
2019-04-16T02:17:11.572Z,3.91
2019-04-16T02:18:11.610Z,3.91
2019-04-16T02:19:11.647Z,3.91
2019-04-16T02:20:11.683Z,3.90
2019-04-16T02:21:11.720Z,3.88
2019-04-16T02:22:13.684Z,3.80
2019-04-16T02:23:13.569Z,3.79
2019-04-16T02:24:11.830Z,3.83
2019-04-16T02:25:11.866Z,3.96
2019-04-16T02:26:11.904Z,3.90
2019-04-16T02:27:11.939Z,3.91
2019-04-16T02:28:11.981Z,3.90
2019-04-16T02:29:12.014Z,3.88
2019-04-16T02:30:12.052Z,3.86
2019-04-16T02:31:15.662Z,3.87
2019-04-16T02:32:12.126Z,3.86
2019-04-16T02:33:12.163Z,3.78
2019-04-16T02:34:12.198Z,3.79
2019-04-16T02:35:12.233Z,3.86
2019-04-16T02:36:12.277Z,3.78
2019-04-16T02:37:12.309Z,3.75
2019-04-16T02:38:13.838Z,3.73
2019-04-16T02:39:12.381Z,3.79
2019-04-16T02:40:16.602Z,3.62
2019-04-16T02:41:12.467Z,3.65
2019-04-16T02:42:12.494Z,3.66
2019-04-16T02:43:12.529Z,3.68
2019-04-16T02:44:15.911Z,3.68
2019-04-16T02:45:12.601Z,3.51
2019-04-16T02:46:12.639Z,3.54
2019-04-16T02:47:12.675Z,3.52
2019-04-16T02:48:16.741Z,3.51
2019-04-16T02:49:12.750Z,3.39
2019-04-16T02:50:12.787Z,3.51
2019-04-16T02:51:12.833Z,3.48
2019-04-16T02:52:16.623Z,3.47
2019-04-16T02:53:12.897Z,3.45
2019-04-16T02:54:12.933Z,3.35
2019-04-16T02:55:12.972Z,3.43
2019-04-16T02:56:17.765Z,3.31
2019-04-16T02:57:13.049Z,3.23
2019-04-16T02:58:13.082Z,3.21
2019-04-16T02:59:13.708Z,3.20
2019-04-16T03:00:17.575Z,3.23
2019-04-16T03:01:13.187Z,3.15
2019-04-16T03:02:13.225Z,3.17
2019-04-16T03:03:13.258Z,3.20
2019-04-16T03:04:13.299Z,3.20
2019-04-16T03:05:13.334Z,3.14
2019-04-16T03:06:13.368Z,3.02
2019-04-16T03:07:13.405Z,3.06
2019-04-16T03:08:13.442Z,3.02
2019-04-16T03:09:13.478Z,3.08
2019-04-16T03:10:14.027Z,3.03
2019-04-16T03:11:13.747Z,3.00
2019-04-16T03:12:13.586Z,3.00
2019-04-16T03:13:13.664Z,2.96
2019-04-16T03:14:13.662Z,2.85
2019-04-16T03:15:13.696Z,2.96
2019-04-16T03:16:13.733Z,2.85
2019-04-16T03:17:13.770Z,2.85
2019-04-16T03:18:14.875Z,2.85
2019-04-16T03:19:18.845Z,2.84
2019-04-16T03:20:13.881Z,2.85
2019-04-16T03:21:13.913Z,2.87
2019-04-16T03:22:13.951Z,2.81
2019-04-16T03:23:13.986Z,2.87
2019-04-16T03:24:14.024Z,2.89
2019-04-16T03:25:14.650Z,2.81
2019-04-16T03:26:17.482Z,2.84
2019-04-16T03:27:14.284Z,2.82
2019-04-16T03:28:14.175Z,2.81
2019-04-16T03:29:14.207Z,2.82
2019-04-16T03:30:14.289Z,2.74
2019-04-16T03:31:20.317Z,2.72
2019-04-16T03:32:15.580Z,2.72
2019-04-16T03:33:15.766Z,2.63
2019-04-16T03:34:14.388Z,2.60
2019-04-16T03:35:14.421Z,2.63
2019-04-16T03:36:14.461Z,2.59
2019-04-16T03:37:14.497Z,2.64
2019-04-16T03:38:14.532Z,2.61
2019-04-16T03:39:14.567Z,2.64
2019-04-16T03:40:18.049Z,2.67
2019-04-16T03:41:14.688Z,2.60
2019-04-16T03:42:14.684Z,2.60
2019-04-16T03:43:14.711Z,2.49
2019-04-16T03:44:14.748Z,2.49
2019-04-16T03:45:14.784Z,2.46
2019-04-16T03:46:14.820Z,2.60
2019-04-16T03:47:15.720Z,2.57
2019-04-16T03:48:14.896Z,2.54
2019-04-16T03:49:14.930Z,2.57
2019-04-16T03:50:14.966Z,2.57
2019-04-16T03:51:15.013Z,2.48
2019-04-16T03:52:15.040Z,2.53
2019-04-16T03:53:17.579Z,2.46
2019-04-16T03:54:15.113Z,2.52
2019-04-16T03:55:15.149Z,2.36
2019-04-16T03:56:15.186Z,2.43
2019-04-16T03:57:15.251Z,2.43
2019-04-16T03:58:15.317Z,2.45
2019-04-16T03:59:15.331Z,2.43
2019-04-16T04:00:15.367Z,2.30
2019-04-16T04:01:15.571Z,2.36
2019-04-16T04:02:21.272Z,2.35
2019-04-16T04:03:15.435Z,2.35
2019-04-16T04:04:15.490Z,2.36
2019-04-16T04:05:15.599Z,2.31
2019-04-16T04:06:15.669Z,2.34
2019-04-16T04:07:15.585Z,2.30
2019-04-16T04:08:17.379Z,2.23
2019-04-16T04:09:18.579Z,2.25
2019-04-16T04:10:29.117Z,2.31
2019-04-16T04:11:15.726Z,2.38
2019-04-16T04:12:15.860Z,2.24
2019-04-16T04:13:18.616Z,2.23
2019-04-16T04:14:15.831Z,2.30
2019-04-16T04:15:15.868Z,2.34
2019-04-16T04:16:15.907Z,2.36
2019-04-16T04:17:15.938Z,2.27
2019-04-16T04:18:15.975Z,2.23
2019-04-16T04:19:16.207Z,2.27
2019-04-16T04:20:18.341Z,2.31
2019-04-16T04:21:21.183Z,2.28
2019-04-16T04:22:16.120Z,2.24
2019-04-16T04:23:16.155Z,2.31
2019-04-16T04:24:16.190Z,2.28
2019-04-16T04:25:16.228Z,2.23
2019-04-16T04:26:16.270Z,2.28
2019-04-16T04:27:19.017Z,2.27
2019-04-16T04:28:19.655Z,2.24
2019-04-16T04:29:16.380Z,2.17
2019-04-16T04:30:16.415Z,2.30
2019-04-16T04:31:16.442Z,2.23
2019-04-16T04:32:16.486Z,2.23
2019-04-16T04:33:16.522Z,2.17
2019-04-16T04:34:17.419Z,2.27
2019-04-16T04:35:20.482Z,2.27
2019-04-16T04:36:18.897Z,2.31
2019-04-16T04:37:16.660Z,2.27
2019-04-16T04:38:16.697Z,2.21
2019-04-16T04:39:16.730Z,2.31
2019-04-16T04:40:17.507Z,2.25
2019-04-16T04:41:16.811Z,2.27
2019-04-16T04:42:18.903Z,2.23
2019-04-16T04:43:16.880Z,2.30
2019-04-16T04:44:16.915Z,2.24
2019-04-16T04:45:16.953Z,2.30
2019-04-16T04:46:16.983Z,2.28
2019-04-16T04:47:19.373Z,2.30
2019-04-16T04:48:17.055Z,2.28
2019-04-16T04:49:17.090Z,2.12
2019-04-16T04:50:17.127Z,2.24
2019-04-16T04:51:17.177Z,2.30
2019-04-16T04:52:17.207Z,2.35
2019-04-16T04:53:19.224Z,2.24
2019-04-16T04:54:21.604Z,2.24
2019-04-16T04:55:17.307Z,2.24
2019-04-16T04:56:19.320Z,2.31
2019-04-16T04:57:17.380Z,2.23
2019-04-16T04:58:17.415Z,2.25
2019-04-16T04:59:17.449Z,2.25
2019-04-16T05:00:17.486Z,2.31
2019-04-16T05:01:17.523Z,2.39
2019-04-16T05:02:17.559Z,2.28
2019-04-16T05:03:17.594Z,2.28
2019-04-16T05:04:20.344Z,2.41
2019-04-16T05:05:17.669Z,2.27
2019-04-16T05:06:17.704Z,2.28
2019-04-16T05:07:17.738Z,2.31
2019-04-16T05:08:17.774Z,2.24
2019-04-16T05:09:17.853Z,2.35
2019-04-16T05:10:17.903Z,2.30
2019-04-16T05:11:17.882Z,2.30
2019-04-16T05:12:21.329Z,2.35
2019-04-16T05:13:17.960Z,2.45
2019-04-16T05:14:17.999Z,2.45
2019-04-16T05:15:18.026Z,2.45
2019-04-16T05:16:18.060Z,2.43
2019-04-16T05:17:18.096Z,2.46
2019-04-16T05:18:18.142Z,2.48
2019-04-16T05:19:18.167Z,2.46
2019-04-16T05:20:18.207Z,2.52
2019-04-16T05:21:19.514Z,2.57
2019-04-16T05:22:21.809Z,2.57
2019-04-16T05:23:18.321Z,2.54
2019-04-16T05:24:18.355Z,2.57
2019-04-16T05:25:18.432Z,2.63
2019-04-16T05:26:18.586Z,2.64
2019-04-16T05:27:18.460Z,2.75
2019-04-16T05:28:18.494Z,2.67
2019-04-16T05:29:18.765Z,2.81
2019-04-16T05:30:21.105Z,2.85
2019-04-16T05:31:18.675Z,2.79
2019-04-16T05:32:18.647Z,2.84
2019-04-16T05:33:18.675Z,2.92
2019-04-16T05:34:18.802Z,2.93
2019-04-16T05:35:18.867Z,2.93
2019-04-16T05:36:21.141Z,2.87
2019-04-16T05:37:20.138Z,2.99
2019-04-16T05:38:20.512Z,3.08
2019-04-16T05:39:18.900Z,3.06
2019-04-16T05:40:18.928Z,3.13
2019-04-16T05:41:21.971Z,3.20
2019-04-16T05:42:19.001Z,3.13
2019-04-16T05:43:22.087Z,3.14
2019-04-16T05:44:19.072Z,3.21
2019-04-16T05:45:19.108Z,3.31
2019-04-16T05:46:19.148Z,3.31
2019-04-16T05:47:19.180Z,3.42
2019-04-16T05:48:21.661Z,3.45
2019-04-16T05:49:19.258Z,3.45
2019-04-16T05:50:19.300Z,3.57
2019-04-16T05:51:19.361Z,3.51
2019-04-16T05:52:19.363Z,3.54
2019-04-16T05:53:19.407Z,3.70
2019-04-16T05:54:19.452Z,3.68
2019-04-16T05:55:19.530Z,3.75
2019-04-16T05:56:22.668Z,3.79
2019-04-16T05:57:19.553Z,3.87
2019-04-16T05:58:19.580Z,3.86
2019-04-16T05:59:19.618Z,3.91
2019-04-16T06:00:19.655Z,3.90
2019-04-16T06:01:19.731Z,3.90
2019-04-16T06:02:20.038Z,3.96
2019-04-16T06:03:21.864Z,4.02
2019-04-16T06:04:24.292Z,4.08
2019-04-16T06:05:19.840Z,4.12
2019-04-16T06:06:19.873Z,4.26
2019-04-16T06:07:19.911Z,4.30
2019-04-16T06:08:19.947Z,4.40
2019-04-16T06:09:19.982Z,4.51
2019-04-16T06:10:20.020Z,4.58
2019-04-16T06:11:28.675Z,4.52
2019-04-16T06:12:20.306Z,4.58
2019-04-16T06:13:20.141Z,4.73
2019-04-16T06:14:20.179Z,4.78
2019-04-16T06:15:22.278Z,4.82
2019-04-16T06:16:24.155Z,4.88
2019-04-16T06:17:20.282Z,4.85
2019-04-16T06:18:20.316Z,4.91
2019-04-16T06:19:20.351Z,5.07
2019-04-16T06:20:21.413Z,5.09
2019-04-16T06:21:25.023Z,5.18
2019-04-16T06:22:20.634Z,5.25
2019-04-16T06:23:20.604Z,5.36
2019-04-16T06:24:20.535Z,5.40
2019-04-16T06:25:20.575Z,5.56
2019-04-16T06:26:20.608Z,5.63
2019-04-16T06:27:20.646Z,5.64
2019-04-16T06:28:20.683Z,5.79
2019-04-16T06:29:20.719Z,5.85
2019-04-16T06:30:21.098Z,5.93
2019-04-16T06:31:20.793Z,5.89
2019-04-16T06:32:20.831Z,6.06
2019-04-16T06:33:20.869Z,6.03
2019-04-16T06:34:23.644Z,6.14
2019-04-16T06:35:20.951Z,6.17
2019-04-16T06:36:20.980Z,6.27
2019-04-16T06:37:26.461Z,6.34
2019-04-16T06:38:21.058Z,6.41
2019-04-16T06:39:21.094Z,6.43
2019-04-16T06:40:21.130Z,6.58
2019-04-16T06:41:21.166Z,6.56
2019-04-16T06:42:22.972Z,6.62
2019-04-16T06:43:25.123Z,6.59
2019-04-16T06:44:21.281Z,6.71
2019-04-16T06:45:21.319Z,6.73
2019-04-16T06:46:21.356Z,6.85
2019-04-16T06:47:21.392Z,6.85
2019-04-16T06:48:21.441Z,6.92
2019-04-16T06:49:21.469Z,7.06
2019-04-16T06:50:31.206Z,7.10
2019-04-16T06:51:21.552Z,7.21
2019-04-16T06:52:21.584Z,7.20
2019-04-16T06:53:23.532Z,7.24
2019-04-16T06:54:21.675Z,7.25
2019-04-16T06:55:21.738Z,7.32
2019-04-16T06:56:21.732Z,7.39
2019-04-16T06:57:21.770Z,7.48
2019-04-16T06:58:21.824Z,7.46
2019-04-16T06:59:21.847Z,7.53
2019-04-16T07:00:21.899Z,7.60
2019-04-16T07:01:23.003Z,7.52
2019-04-16T07:02:24.394Z,7.53
2019-04-16T07:03:25.867Z,7.68
2019-04-16T07:04:22.037Z,7.69
2019-04-16T07:05:22.221Z,7.89
2019-04-16T07:06:22.182Z,7.93
2019-04-16T07:07:22.572Z,8.01
2019-04-16T07:08:22.192Z,7.98
2019-04-16T07:09:25.787Z,8.02
2019-04-16T07:10:22.367Z,8.12
2019-04-16T07:11:22.304Z,8.12
2019-04-16T07:12:22.413Z,8.16
2019-04-16T07:13:22.389Z,8.10
2019-04-16T07:14:22.582Z,8.22
2019-04-16T07:15:23.752Z,8.30
2019-04-16T07:16:22.556Z,8.30
2019-04-16T07:17:22.588Z,8.34
2019-04-16T07:18:22.626Z,8.38
2019-04-16T07:19:22.919Z,8.47
2019-04-16T07:20:22.650Z,8.48
2019-04-16T07:21:22.689Z,8.52
2019-04-16T07:22:22.729Z,8.61
2019-04-16T07:23:24.900Z,8.70
2019-04-16T07:24:23.602Z,8.79
2019-04-16T07:25:27.030Z,8.81
2019-04-16T07:26:22.892Z,8.84
2019-04-16T07:27:22.990Z,8.96
2019-04-16T07:28:25.842Z,8.96
2019-04-16T07:29:23.056Z,8.95
2019-04-16T07:30:23.045Z,9.08
2019-04-16T07:31:33.345Z,9.10
2019-04-16T07:32:23.112Z,9.11
2019-04-16T07:33:23.151Z,9.14
2019-04-16T07:34:23.245Z,9.20
2019-04-16T07:35:23.241Z,9.26
2019-04-16T07:36:24.227Z,9.24
2019-04-16T07:37:23.314Z,9.33
2019-04-16T07:38:23.367Z,9.43
2019-04-16T07:39:30.070Z,9.54
2019-04-16T07:40:23.426Z,9.53
2019-04-16T07:41:23.464Z,9.47
2019-04-16T07:42:26.208Z,9.56
2019-04-16T07:43:23.539Z,9.54
2019-04-16T07:44:23.595Z,9.60
2019-04-16T07:45:23.624Z,9.71
2019-04-16T07:46:23.657Z,9.64
2019-04-16T07:47:23.695Z,9.58
2019-04-16T07:48:23.736Z,9.64
2019-04-16T07:49:26.566Z,9.76
2019-04-16T07:50:23.817Z,9.81
2019-04-16T07:51:23.855Z,9.74
2019-04-16T07:52:23.935Z,9.75
2019-04-16T07:53:23.932Z,9.78
2019-04-16T07:54:23.983Z,9.86
2019-04-16T07:55:26.695Z,9.94
2019-04-16T07:56:24.052Z,9.94
2019-04-16T07:57:24.102Z,9.94
2019-04-16T07:58:24.131Z,10.02
2019-04-16T07:59:24.168Z,10.07
2019-04-16T08:00:24.209Z,10.11
2019-04-16T08:01:24.247Z,10.14
2019-04-16T08:02:24.292Z,10.22
2019-04-16T08:03:26.829Z,10.23
2019-04-16T08:04:29.045Z,10.36
2019-04-16T08:05:27.622Z,10.34
2019-04-16T08:06:24.456Z,10.44
2019-04-16T08:07:24.485Z,10.60
2019-04-16T08:08:25.474Z,10.59
2019-04-16T08:09:28.948Z,10.64
2019-04-16T08:10:24.617Z,10.66
2019-04-16T08:11:24.643Z,10.60
2019-04-16T08:12:30.555Z,10.64
2019-04-16T08:13:24.730Z,10.73
2019-04-16T08:14:24.765Z,10.76
2019-04-16T08:15:24.801Z,10.71
2019-04-16T08:16:24.847Z,10.76
2019-04-16T08:17:24.883Z,10.79
2019-04-16T08:18:24.924Z,10.88
2019-04-16T08:19:36.140Z,10.94
2019-04-16T08:20:25.006Z,10.94
2019-04-16T08:21:25.045Z,10.97
2019-04-16T08:22:25.105Z,11.07
2019-04-16T08:23:25.122Z,11.11
2019-04-16T08:24:25.572Z,11.15
2019-04-16T08:25:25.208Z,11.22
2019-04-16T08:26:25.246Z,11.36
2019-04-16T08:27:25.281Z,11.37
2019-04-16T08:28:25.322Z,11.46
2019-04-16T08:29:26.619Z,11.55
2019-04-16T08:30:25.406Z,11.58
2019-04-16T08:31:25.443Z,11.58
2019-04-16T08:32:26.040Z,11.61
2019-04-16T08:33:28.238Z,11.62
2019-04-16T08:34:25.563Z,11.70
2019-04-16T08:35:25.608Z,11.75
2019-04-16T08:36:25.644Z,11.76
2019-04-16T08:37:25.688Z,11.75
2019-04-16T08:38:26.131Z,11.79
2019-04-16T08:39:25.766Z,11.79
2019-04-16T08:40:25.815Z,11.90
2019-04-16T08:41:25.856Z,11.90
2019-04-16T08:42:29.330Z,11.94
2019-04-16T08:43:26.617Z,11.98
2019-04-16T08:44:25.967Z,11.99
2019-04-16T08:45:26.016Z,12.10
2019-04-16T08:46:28.213Z,12.19
2019-04-16T08:47:26.097Z,12.34
2019-04-16T08:48:26.135Z,12.38
2019-04-16T08:49:26.171Z,12.50
2019-04-16T08:50:27.002Z,12.52
2019-04-16T08:51:30.691Z,12.59
2019-04-16T08:52:26.298Z,12.79
2019-04-16T08:53:26.334Z,12.92
2019-04-16T08:54:26.384Z,12.90
2019-04-16T08:55:26.415Z,12.95
2019-04-16T08:56:26.466Z,13.00
2019-04-16T08:57:31.827Z,13.03
2019-04-16T08:58:26.538Z,13.03
2019-04-16T08:59:26.577Z,13.12
2019-04-16T09:00:26.626Z,13.07
2019-04-16T09:01:26.661Z,13.15
2019-04-16T09:02:27.322Z,13.17
2019-04-16T09:03:29.899Z,13.28
2019-04-16T09:04:26.787Z,13.38
2019-04-16T09:05:26.824Z,13.39
2019-04-16T09:06:26.867Z,13.45
2019-04-16T09:07:26.908Z,13.52
2019-04-16T09:08:26.949Z,13.62
2019-04-16T09:09:26.991Z,13.54
2019-04-16T09:10:29.954Z,13.67
2019-04-16T09:11:28.532Z,13.66
2019-04-16T09:12:27.154Z,13.71
2019-04-16T09:13:27.155Z,13.79
2019-04-16T09:14:27.206Z,13.85
2019-04-16T09:15:27.579Z,13.82
2019-04-16T09:16:27.281Z,13.97
2019-04-16T09:17:27.322Z,13.97
2019-04-16T09:18:27.367Z,14.00
2019-04-16T09:19:27.414Z,13.96
2019-04-16T09:20:27.449Z,14.03
2019-04-16T09:21:28.177Z,14.12
2019-04-16T09:22:27.533Z,14.15
2019-04-16T09:23:27.572Z,14.10
2019-04-16T09:24:27.616Z,14.17
2019-04-16T09:25:27.656Z,14.20
2019-04-16T09:26:27.696Z,14.22
2019-04-16T09:27:29.632Z,14.22
2019-04-16T09:28:31.176Z,14.27
2019-04-16T09:29:27.821Z,14.24
2019-04-16T09:30:27.867Z,14.36
2019-04-16T09:31:27.910Z,14.24
2019-04-16T09:32:28.537Z,14.29
2019-04-16T09:33:30.407Z,14.35
2019-04-16T09:34:28.036Z,14.36
2019-04-16T09:35:28.073Z,14.40
2019-04-16T09:36:28.115Z,14.51
2019-04-16T09:37:28.692Z,14.47
2019-04-16T09:38:28.200Z,14.61
2019-04-16T09:39:28.248Z,14.60
2019-04-16T09:40:28.284Z,14.65
2019-04-16T09:41:28.333Z,14.69
2019-04-16T09:42:28.469Z,14.72
2019-04-16T09:43:28.413Z,14.69
2019-04-16T09:44:31.042Z,14.65
2019-04-16T09:45:28.493Z,14.70
2019-04-16T09:46:49.834Z,14.69
2019-04-16T09:47:29.226Z,14.73
2019-04-16T09:48:28.645Z,14.78
2019-04-16T09:49:28.663Z,14.78
2019-04-16T09:50:28.706Z,14.94
2019-04-16T09:51:28.857Z,14.98
2019-04-16T09:52:28.796Z,15.02
2019-04-16T09:53:33.999Z,14.98
2019-04-16T09:54:28.877Z,14.98
2019-04-16T09:55:28.917Z,15.06
2019-04-16T09:56:29.852Z,15.01
2019-04-16T09:57:31.396Z,15.06
2019-04-16T09:58:29.051Z,15.02
2019-04-16T09:59:29.090Z,15.06
2019-04-16T10:00:29.127Z,14.99
2019-04-16T10:01:29.169Z,15.13
2019-04-16T10:02:29.217Z,15.13
2019-04-16T10:03:29.258Z,15.13
2019-04-16T10:04:29.298Z,15.16
2019-04-16T10:05:30.188Z,15.25
2019-04-16T10:06:29.383Z,15.27
2019-04-16T10:07:29.434Z,15.28
2019-04-16T10:08:29.659Z,15.25
2019-04-16T10:09:29.521Z,15.32
2019-04-16T10:10:29.555Z,15.39
2019-04-16T10:11:29.598Z,15.43
2019-04-16T10:12:29.644Z,15.41
2019-04-16T10:13:34.010Z,15.38
2019-04-16T10:14:29.749Z,15.44
2019-04-16T10:15:29.785Z,15.35
2019-04-16T10:16:29.812Z,15.41
2019-04-16T10:17:29.860Z,15.53
2019-04-16T10:18:34.724Z,15.54
2019-04-16T10:19:29.945Z,15.54
2019-04-16T10:20:29.980Z,15.59
2019-04-16T10:21:30.042Z,15.59
2019-04-16T10:22:30.087Z,15.57
2019-04-16T10:23:30.108Z,15.51
2019-04-16T10:24:30.154Z,15.62
2019-04-16T10:25:33.655Z,15.65
2019-04-16T10:26:30.264Z,15.64
2019-04-16T10:27:32.255Z,15.67
2019-04-16T10:28:30.331Z,15.74
2019-04-16T10:29:30.366Z,15.74
2019-04-16T10:30:30.442Z,15.65
2019-04-16T10:31:30.471Z,15.75
2019-04-16T10:32:30.492Z,15.75
2019-04-16T10:33:30.533Z,15.72
2019-04-16T10:34:30.578Z,15.76
2019-04-16T10:35:30.632Z,15.82
2019-04-16T10:36:30.663Z,15.84
2019-04-16T10:37:30.718Z,15.87
2019-04-16T10:38:30.778Z,15.87
2019-04-16T10:39:30.791Z,16.02
2019-04-16T10:40:30.835Z,15.94
2019-04-16T10:41:30.897Z,16.02
2019-04-16T10:42:30.949Z,16.05
2019-04-16T10:43:43.942Z,16.08
2019-04-16T10:44:31.021Z,16.05
2019-04-16T10:45:31.051Z,16.07
2019-04-16T10:46:31.102Z,16.14
2019-04-16T10:47:31.146Z,16.14
2019-04-16T10:48:31.204Z,16.17
2019-04-16T10:49:31.234Z,16.20
2019-04-16T10:50:31.269Z,16.33
2019-04-16T10:51:31.318Z,16.31
2019-04-16T10:52:31.351Z,16.43
2019-04-16T10:53:31.400Z,16.39
2019-04-16T10:54:33.765Z,16.39
2019-04-16T10:55:31.485Z,16.33
2019-04-16T10:56:31.536Z,16.42
2019-04-16T10:57:31.570Z,16.45
2019-04-16T10:58:31.618Z,16.52
2019-04-16T10:59:31.680Z,16.53
2019-04-16T11:00:31.706Z,16.61
2019-04-16T11:01:35.030Z,16.57
2019-04-16T11:02:31.822Z,16.66
2019-04-16T11:03:34.461Z,16.66
2019-04-16T11:04:31.894Z,16.75
2019-04-16T11:05:31.988Z,16.73
2019-04-16T11:06:32.006Z,16.71
2019-04-16T11:07:32.008Z,16.70
2019-04-16T11:08:32.045Z,16.76
2019-04-16T11:09:32.093Z,16.68
2019-04-16T11:10:32.137Z,16.68
2019-04-16T11:11:32.179Z,16.71
2019-04-16T11:12:32.220Z,16.71
2019-04-16T11:13:32.286Z,16.76
2019-04-16T11:14:32.328Z,16.73
2019-04-16T11:15:32.357Z,16.70
2019-04-16T11:16:35.830Z,16.76
2019-04-16T11:17:32.435Z,16.79
2019-04-16T11:18:32.504Z,16.78
2019-04-16T11:19:32.528Z,16.82
2019-04-16T11:20:32.638Z,16.75
2019-04-16T11:21:32.613Z,16.88
2019-04-16T11:22:32.653Z,16.83
2019-04-16T11:23:32.708Z,16.89
2019-04-16T11:24:32.748Z,16.83
2019-04-16T11:25:32.783Z,16.85
2019-04-16T11:26:32.826Z,16.86
2019-04-16T11:27:32.871Z,16.86
2019-04-16T11:28:32.940Z,16.88
2019-04-16T11:29:32.974Z,16.83
2019-04-16T11:30:33.017Z,16.88
2019-04-16T11:31:33.089Z,16.93
2019-04-16T11:32:33.122Z,16.88
2019-04-16T11:33:33.149Z,16.86
2019-04-16T11:34:33.180Z,16.97
2019-04-16T11:35:33.227Z,16.93
2019-04-16T11:36:33.265Z,17.07
2019-04-16T11:37:36.235Z,17.06
2019-04-16T11:38:33.354Z,17.07
2019-04-16T11:39:33.430Z,17.07
2019-04-16T11:40:33.458Z,17.07
2019-04-16T11:41:33.490Z,17.08
2019-04-16T11:42:33.531Z,17.07
2019-04-16T11:43:33.596Z,17.14
2019-04-16T11:44:33.612Z,17.22
2019-04-16T11:45:33.672Z,17.11
2019-04-16T11:46:33.699Z,17.12
2019-04-16T11:47:34.745Z,17.16
2019-04-16T11:48:37.162Z,17.16
2019-04-16T11:49:33.871Z,17.23
2019-04-16T11:50:35.972Z,17.21
2019-04-16T11:51:33.970Z,17.12
2019-04-16T11:52:33.990Z,17.30
2019-04-16T11:53:34.044Z,17.25
2019-04-16T11:54:34.055Z,17.40
2019-04-16T11:55:34.143Z,17.36
2019-04-16T11:56:34.138Z,17.34
2019-04-16T11:57:34.205Z,17.25
2019-04-16T11:58:34.244Z,17.28
2019-04-16T11:59:37.903Z,17.34
2019-04-16T12:00:34.318Z,17.43
2019-04-16T12:01:34.382Z,17.40
2019-04-16T12:02:34.403Z,17.52
2019-04-16T12:03:36.591Z,17.48
2019-04-16T12:04:34.525Z,17.41
2019-04-16T12:05:34.535Z,17.41
2019-04-16T12:06:34.578Z,17.43
2019-04-16T12:07:34.670Z,17.43
2019-04-16T12:08:34.709Z,17.51
2019-04-16T12:09:34.717Z,17.40
2019-04-16T12:10:34.803Z,17.52
2019-04-16T12:11:34.806Z,17.51
2019-04-16T12:12:34.886Z,17.41
2019-04-16T12:13:34.892Z,17.52
2019-04-16T12:14:35.180Z,17.52
2019-04-16T12:15:34.993Z,17.49
2019-04-16T12:16:35.036Z,17.41
2019-04-16T12:17:36.511Z,17.51
2019-04-16T12:18:35.112Z,17.44
2019-04-16T12:19:35.176Z,17.54
2019-04-16T12:20:35.211Z,17.52
2019-04-16T12:21:35.260Z,17.62
2019-04-16T12:22:35.288Z,17.64
2019-04-16T12:23:35.348Z,17.64
2019-04-16T12:24:35.403Z,17.48
2019-04-16T12:25:35.413Z,17.56
2019-04-16T12:26:35.467Z,17.56
2019-04-16T12:27:35.534Z,17.62
2019-04-16T12:28:35.547Z,17.74
2019-04-16T12:29:35.607Z,17.74
2019-04-16T12:30:35.659Z,17.72
2019-04-16T12:31:35.725Z,17.75
2019-04-16T12:32:35.722Z,17.64
2019-04-16T12:33:35.804Z,17.71
2019-04-16T12:34:35.808Z,17.74
2019-04-16T12:35:35.851Z,17.74
2019-04-16T12:36:35.944Z,17.75
2019-04-16T12:37:37.638Z,17.71
2019-04-16T12:38:36.086Z,17.62
2019-04-16T12:39:36.342Z,17.72
2019-04-16T12:40:36.073Z,17.70
2019-04-16T12:41:36.123Z,17.68
2019-04-16T12:42:41.245Z,17.72
2019-04-16T12:43:36.238Z,17.74
2019-04-16T12:44:45.110Z,17.71
2019-04-16T12:45:36.298Z,17.78
2019-04-16T12:46:36.347Z,17.86
2019-04-16T12:47:36.383Z,17.82
2019-04-16T12:48:36.448Z,17.86
2019-04-16T12:49:36.471Z,17.92
2019-04-16T12:50:36.517Z,17.82
2019-04-16T12:51:39.743Z,17.89
2019-04-16T12:52:36.663Z,17.89
2019-04-16T12:53:36.648Z,17.84
2019-04-16T12:54:37.889Z,17.84
2019-04-16T12:55:36.750Z,17.82
2019-04-16T12:56:41.161Z,17.84
2019-04-16T12:57:36.848Z,17.89
2019-04-16T12:58:36.877Z,17.95
2019-04-16T12:59:36.913Z,17.90
2019-04-16T13:00:36.966Z,17.87
2019-04-16T13:01:37.266Z,17.87
2019-04-16T13:02:37.046Z,17.96
2019-04-16T13:03:37.092Z,17.96
2019-04-16T13:04:37.134Z,17.96
2019-04-16T13:05:37.178Z,17.90
2019-04-16T13:06:37.223Z,18.02
2019-04-16T13:07:39.097Z,17.92
2019-04-16T13:08:37.309Z,17.95